aviador You're here:

PAWG Decoded Metar

WRANGELL in AK, USA
Report Time2018-05-26 14:56:00
UTC Time2018-05-26 15:43:10
Flight Rules vfr VFR
Wind080° at 11 kt
W.Decomp.*RWY 10: 8.4 kt HW 7.1 kt LCW
W.Rank080° ranks 7
Current wind is above 080° avg. (7.6)
Visibility9999 m
Phenomena:Light Rain
Clouds:Few 035 Hf
Broken 045 Hf
Overcast 070 Hf
Expected CloudBase > 800 ft AGL from Temp-Dew spread
Ceiling4,500 ft
Temp07°C (ISA -8)
Dew Point05°C (87% RH)
AAT1.9°C
QNH1010 hPa
Density Alt-699 ft
Elevation36 ft
Report Wrong Elevation
Raw Report
PAWG 261456Z 08011KT 10SM -RA FEW035 BKN045 OVC070 07/05 A2984=

Extra information for PAWG:More info

Metar Taf Metar & Taf Last 4 Metars F.Rules Stats Wind Profile Meteogram Temp Stats Airport Information Weather charts Add Link Nearby VenuesMetar ALERT Operation Metar Decoded Social comments

AIRNAV info for PAWG